Weather at Skopje International Airport

Public forecast

Using degrees Celsius for public forecast. Weather courtesy of forecast.io.

Current aviation weather report (METAR) for Skopje International Airport

Retrieved 2022/07/02 01:00 UTC (11 minutes ago):

LWSK 020100Z 04003KT CAVOK 21/17 Q1017 NOSIG

Aviation forecast (TAF) for Skopje International Airport

Retrieved 2022-07-02 00:47 UTC (24 minutes ago):

TAF LWSK 012330Z 0200/0224 VRB02KT CAVOK PROB30 TEMPO 0212/0218 VRB15KT TSRA FEW033CB BKN040